createdAt,value
2022-10-18T00:00:01.794Z,26.6
2022-10-18T00:05:31.990Z,26.6
2022-10-18T00:11:01.224Z,26.6
2022-10-18T00:16:31.413Z,26.6
2022-10-18T00:22:01.654Z,26.5
2022-10-18T00:27:30.886Z,26.6
2022-10-18T00:33:01.092Z,26.6
2022-10-18T00:38:31.303Z,26.6
2022-10-18T00:44:00.535Z,26.6
2022-10-18T00:49:30.726Z,26.6
2022-10-18T00:54:59.937Z,26.6
2022-10-18T01:00:30.158Z,26.6
2022-10-18T01:06:00.311Z,26.6
2022-10-18T01:11:29.549Z,26.5
2022-10-18T01:16:59.777Z,26.5
2022-10-18T01:22:29.941Z,26.6
2022-10-18T01:27:59.157Z,26.5
2022-10-18T01:33:29.343Z,26.5
2022-10-18T01:38:59.497Z,26.5
2022-10-18T01:44:28.760Z,26.5
2022-10-18T01:49:58.941Z,26.5
2022-10-18T01:55:28.249Z,26.5
2022-10-18T02:00:58.511Z,26.5
2022-10-18T02:06:28.727Z,26.5
2022-10-18T02:11:57.946Z,26.5
2022-10-18T02:17:28.144Z,26.5
2022-10-18T02:22:57.391Z,26.5
2022-10-18T02:28:27.572Z,26.5
2022-10-18T02:33:57.744Z,26.5
2022-10-18T02:39:27.073Z,26.5
2022-10-18T02:44:57.258Z,26.5
2022-10-18T02:50:27.472Z,26.5
2022-10-18T02:55:56.711Z,26.5
2022-10-18T03:01:26.955Z,26.5
2022-10-18T03:06:56.101Z,26.5
2022-10-18T03:12:26.378Z,26.5
2022-10-18T03:17:56.600Z,26.5
2022-10-18T03:23:25.865Z,26.5
2022-10-18T03:28:56.138Z,26.5
2022-10-18T03:34:25.341Z,26.5
2022-10-18T03:39:55.602Z,26.5
2022-10-18T03:45:28.972Z,26.5
2022-10-18T03:50:55.086Z,26.5
2022-10-18T03:56:25.480Z,26.5
2022-10-18T04:01:55.807Z,26.5
2022-10-18T04:07:24.965Z,26.5
2022-10-18T04:12:55.173Z,26.5
2022-10-18T04:18:24.457Z,26.5
2022-10-18T04:23:54.685Z,26.5
2022-10-18T04:29:24.907Z,26.5
2022-10-18T04:34:54.195Z,26.5
2022-10-18T04:40:24.535Z,26.5
2022-10-18T04:45:54.803Z,26.5
2022-10-18T04:51:24.077Z,26.5
2022-10-18T04:56:54.281Z,26.5
2022-10-18T05:02:23.552Z,26.5
2022-10-18T05:07:52.786Z,26.5
2022-10-18T05:13:22.998Z,26.5
2022-10-18T05:18:53.229Z,26.5
2022-10-18T05:24:25.470Z,26.5
2022-10-18T05:29:52.762Z,26.5
2022-10-18T05:35:22.008Z,26.4
2022-10-18T05:40:52.255Z,26.5
2022-10-18T05:46:22.436Z,26.5
2022-10-18T05:51:51.668Z,26.4
2022-10-18T05:57:21.918Z,26.5
2022-10-18T06:02:52.226Z,26.4
2022-10-18T06:08:21.380Z,26.5
2022-10-18T06:13:51.648Z,26.5
2022-10-18T06:19:20.866Z,26.5
2022-10-18T06:24:56.467Z,26.4
2022-10-18T06:30:21.283Z,26.5
2022-10-18T06:35:50.466Z,26.5
2022-10-18T06:41:20.661Z,26.4
2022-10-18T06:46:50.874Z,26.4
2022-10-18T06:52:20.032Z,26.4
2022-10-18T06:57:50.214Z,26.5
2022-10-18T07:03:19.448Z,26.4
2022-10-18T07:08:49.624Z,26.5
2022-10-18T07:14:19.826Z,26.4
2022-10-18T07:19:49.055Z,26.4
2022-10-18T07:25:19.217Z,26.4
2022-10-18T07:30:48.398Z,26.5
2022-10-18T07:36:18.657Z,26.5
2022-10-18T07:41:48.833Z,26.4
2022-10-18T07:47:18.049Z,26.4
2022-10-18T07:52:48.263Z,26.4
2022-10-18T07:58:18.393Z,26.4
2022-10-18T08:03:47.538Z,26.5
2022-10-18T08:09:17.755Z,26.5
2022-10-18T08:14:46.869Z,26.5
2022-10-18T08:20:29.872Z,26.5
2022-10-18T08:25:47.257Z,26.5
2022-10-18T08:31:16.413Z,26.5
2022-10-18T08:36:46.569Z,26.5
2022-10-18T08:42:16.744Z,26.5
2022-10-18T08:47:44.937Z,26.5
2022-10-18T08:53:15.134Z,26.6
2022-10-18T08:58:45.348Z,26.5
2022-10-18T09:04:14.551Z,26.6
2022-10-18T09:09:44.732Z,26.6
2022-10-18T09:15:14.913Z,26.6
2022-10-18T09:20:44.084Z,26.6
2022-10-18T09:26:14.220Z,26.6
2022-10-18T09:31:43.425Z,26.6
2022-10-18T09:37:13.612Z,26.6
2022-10-18T09:42:43.748Z,26.6
2022-10-18T09:48:12.971Z,26.6
2022-10-18T09:53:43.099Z,26.6
2022-10-18T09:59:13.259Z,26.6
2022-10-18T10:04:42.460Z,26.6
2022-10-18T10:10:12.837Z,26.6
2022-10-18T10:15:42.542Z,26.6
2022-10-18T10:21:12.074Z,26.6
2022-10-18T10:26:42.211Z,26.6
2022-10-18T10:32:11.405Z,26.6
2022-10-18T10:37:41.630Z,26.6
2022-10-18T10:43:32.881Z,26.6
2022-10-18T10:48:40.978Z,26.6
2022-10-18T10:54:11.251Z,26.6
2022-10-18T11:05:10.493Z,26.5
2022-10-18T11:10:40.752Z,26.5
2022-10-18T11:16:09.897Z,26.6
2022-10-18T11:21:40.095Z,26.6
2022-10-18T11:27:10.331Z,26.5
2022-10-18T11:32:39.537Z,26.5
2022-10-18T11:38:09.758Z,26.6
2022-10-18T11:44:01.025Z,26.6
2022-10-18T11:49:09.183Z,26.6
2022-10-18T12:00:08.608Z,26.6
2022-10-18T12:05:38.783Z,26.6
2022-10-18T12:11:08.965Z,26.6
2022-10-18T12:16:50.964Z,26.7
2022-10-18T12:22:09.437Z,26.7
2022-10-18T12:27:39.754Z,26.7
2022-10-18T12:33:27.333Z,26.7
2022-10-18T12:38:39.128Z,26.7
2022-10-18T12:44:09.437Z,26.7
2022-10-18T12:49:42.596Z,26.8
2022-10-18T12:55:13.944Z,27
2022-10-18T13:00:40.067Z,27
2022-10-18T13:06:10.474Z,27
2022-10-18T13:11:39.570Z,27
2022-10-18T13:17:09.726Z,27
2022-10-18T13:22:39.921Z,27.1
2022-10-18T13:28:10.168Z,27.2
2022-10-18T13:33:40.334Z,27.2
2022-10-18T13:39:10.518Z,27.2
2022-10-18T13:44:39.619Z,27.2
2022-10-18T13:50:09.776Z,27.1
2022-10-18T13:55:39.933Z,27.1
2022-10-18T14:01:09.714Z,27.1
2022-10-18T14:06:39.284Z,27
2022-10-18T14:12:08.479Z,27
2022-10-18T14:23:08.769Z,26.9
2022-10-18T14:28:58.626Z,26.9
2022-10-18T14:34:08.124Z,26.8
2022-10-18T14:39:38.476Z,26.8
2022-10-18T14:45:08.625Z,26.8
2022-10-18T14:50:38.726Z,26.8
2022-10-18T14:56:07.944Z,26.8
2022-10-18T15:01:38.179Z,26.8
2022-10-18T15:07:08.371Z,26.8
2022-10-18T15:13:04.502Z,26.8
2022-10-18T15:18:08.765Z,26.9
2022-10-18T15:23:39.012Z,26.9
2022-10-18T15:29:09.210Z,26.9
2022-10-18T15:34:39.276Z,26.8
2022-10-18T15:40:09.495Z,26.8
2022-10-18T15:45:39.692Z,26.8
2022-10-18T15:51:09.804Z,26.8
2022-10-18T15:56:40.019Z,26.8
2022-10-18T16:02:10.143Z,26.8
2022-10-18T16:07:40.403Z,26.8
2022-10-18T16:13:10.648Z,26.7
2022-10-18T16:18:40.762Z,26.7
2022-10-18T16:24:09.922Z,26.7
2022-10-18T16:29:40.032Z,26.7
2022-10-18T16:35:10.188Z,26.7
2022-10-18T16:40:41.490Z,26.6
2022-10-18T16:46:10.604Z,26.6
2022-10-18T16:51:40.753Z,26.6
2022-10-18T16:57:09.977Z,26.6
2022-10-18T17:02:40.098Z,26.6
2022-10-18T17:08:10.395Z,26.6
2022-10-18T17:13:40.581Z,26.6
2022-10-18T17:19:10.693Z,26.6
2022-10-18T17:24:39.876Z,26.6
2022-10-18T17:30:10.087Z,26.6
2022-10-18T17:35:39.274Z,26.5
2022-10-18T17:41:09.456Z,26.6
2022-10-18T17:46:39.627Z,26.6
2022-10-18T17:52:09.899Z,26.6
2022-10-18T17:57:40.064Z,26.5
2022-10-18T18:03:10.319Z,26.5
2022-10-18T18:08:40.488Z,26.5
2022-10-18T18:14:10.660Z,26.6
2022-10-18T18:19:41.159Z,26.5
2022-10-18T18:25:11.248Z,26.5
2022-10-18T18:30:41.420Z,26.5
2022-10-18T18:36:10.618Z,26.5
2022-10-18T18:41:40.755Z,26.5
2022-10-18T18:47:13.366Z,26.5
2022-10-18T18:52:40.199Z,26.5
2022-10-18T18:58:10.347Z,26.5
2022-10-18T19:03:40.632Z,26.5
2022-10-18T19:09:10.819Z,26.5
2022-10-18T19:14:40.955Z,26.5
2022-10-18T19:20:11.339Z,26.5
2022-10-18T19:25:41.521Z,26.5
2022-10-18T19:31:11.779Z,26.5
2022-10-18T19:36:41.942Z,26.5
2022-10-18T19:42:12.616Z,26.5
2022-10-18T19:47:41.305Z,26.5
2022-10-18T19:53:10.511Z,26.5
2022-10-18T19:58:40.732Z,26.5
2022-10-18T20:04:10.909Z,26.5
2022-10-18T20:09:40.121Z,26.5
2022-10-18T20:15:10.313Z,26.5
2022-10-18T20:20:43.344Z,26.4
2022-10-18T20:26:09.642Z,26.4
2022-10-18T20:31:39.840Z,26.4
2022-10-18T20:37:09.982Z,26.4
2022-10-18T20:42:40.258Z,26.4
2022-10-18T20:48:10.430Z,26.4
2022-10-18T20:53:39.639Z,26.4
2022-10-18T20:59:10.111Z,26.4
2022-10-18T21:04:42.209Z,26.4
2022-10-18T21:10:09.153Z,26.4
2022-10-18T21:15:39.337Z,26.4
2022-10-18T21:21:08.637Z,26.4
2022-10-18T21:26:38.707Z,26.4
2022-10-18T21:32:08.878Z,26.4
2022-10-18T21:37:39.196Z,26.4
2022-10-18T21:43:09.359Z,26.4
2022-10-18T21:48:39.527Z,26.4
2022-10-18T21:54:09.871Z,26.4
2022-10-18T21:59:39.998Z,26.4
2022-10-18T22:05:11.342Z,26.4
2022-10-18T22:10:39.417Z,26.4
2022-10-18T22:16:09.575Z,26.4
2022-10-18T22:21:39.855Z,26.4
2022-10-18T22:27:10.091Z,26.4
2022-10-18T22:32:40.245Z,26.4
2022-10-18T22:38:10.557Z,26.4
2022-10-18T22:43:40.747Z,26.4
2022-10-18T22:49:11.122Z,26.4
2022-10-18T22:54:41.323Z,26.4
2022-10-18T23:00:11.516Z,26.4
2022-10-18T23:05:41.806Z,26.3
2022-10-18T23:11:11.992Z,26.3
2022-10-18T23:16:42.177Z,26.3
2022-10-18T23:22:11.305Z,26.3
2022-10-18T23:33:11.951Z,26.3
2022-10-18T23:38:42.063Z,26.3
2022-10-18T23:44:12.240Z,26.3
2022-10-18T23:49:41.430Z,26.3
2022-10-18T23:55:11.571Z,26.3
